Isles of Scilly, United Kingdom
Current Conditions -  °F | °C
As of 7:50 PM on Sunday 21 Dec 2014 (Local Time) from EGDR Reporting Station
Drizzle Drizzle  
Wind Chill: 52°   Ceiling: 100
Heat Index: 52°   Visibility: 0.93mi
Dew Point: 52°   Wind: 18mph
Humidity: 100%   Direction: 230°SW
Pressure: 30.33"   Gusts: 31mph
Location:  49.91°N, 6.31°W
Report Text: EGDR 211950Z 23016G27KT 1500 -DZ BKN001 OVC002 11/11 Q1027 RED
Loading
Personal Weather Stations






























Interactive Weather Map New forecast layout! Learn more

10-Day Weather Forecast

Advertisements
Track Severe Weather on mobile